Time;durP1;ratioP1;P1;durP2;ratioP2;P2;SDS_P1;SDS_P2;PMS_P1;PMS_P2;Temp;Humidity;BMP_temperature;BMP_pressure;BME280_temperature;BME280_humidity;BME280_pressure;Samples;Min_cycle;Max_cycle;Signal;HPM_P1;HPM_P2
2022/06/19 00:00:14;;;;;;;2.92;2.25;;;23.30;56.70;23.50;100279.00;;;;4993337;28;88034;-65
2022/06/19 00:02:46;;;;;;;2.38;2.05;;;23.30;56.90;23.50;100273.00;;;;4992316;27;109360;-65
2022/06/19 00:05:14;;;;;;;5.30;2.22;;;23.30;56.90;23.50;100271.00;;;;5000105;27;111282;-66
2022/06/19 00:07:41;;;;;;;2.53;1.75;;;23.30;57.00;23.40;100269.00;;;;5013314;27;87234;-66
2022/06/19 00:10:08;;;;;;;8.18;2.58;;;23.20;57.00;23.40;100277.00;;;;5013496;27;101067;-66
2022/06/19 00:12:43;;;;;;;4.82;2.38;;;23.20;57.10;23.40;100277.00;;;;5014681;27;88255;-65
2022/06/19 00:15:18;;;;;;;2.10;1.83;;;23.20;57.20;23.40;100280.00;;;;4996524;27;109515;-65
2022/06/19 00:17:43;;;;;;;3.17;1.92;;;23.20;57.30;23.30;100278.00;;;;4994177;28;103685;-66
2022/06/19 00:20:11;;;;;;;3.13;2.83;;;23.10;57.30;23.30;100269.00;;;;4995027;28;118005;-65
2022/06/19 00:22:37;;;;;;;3.22;2.65;;;23.10;57.50;23.30;100274.00;;;;5006698;27;88610;-66
2022/06/19 00:25:04;;;;;;;4.45;3.22;;;23.10;57.80;23.30;100271.00;;;;5010378;27;88458;-66
2022/06/19 00:27:30;;;;;;;5.53;3.08;;;23.10;58.00;23.20;100268.00;;;;4989701;28;88177;-66
2022/06/19 00:29:58;;;;;;;2.40;2.20;;;23.00;58.00;23.20;100262.00;;;;5014792;27;109919;-66
2022/06/19 00:32:25;;;;;;;4.00;2.45;;;23.00;58.30;23.10;100254.00;;;;5014435;27;109368;-67
2022/06/19 00:34:51;;;;;;;5.55;3.05;;;22.90;58.60;23.10;100254.00;;;;5012450;27;87805;-66
2022/06/19 00:37:17;;;;;;;3.50;3.20;;;22.90;58.90;23.00;100258.00;;;;5009015;27;108948;-65
2022/06/19 00:39:42;;;;;;;3.90;3.30;;;22.90;59.20;22.90;100242.00;;;;5013441;27;119543;-65
2022/06/19 00:42:15;;;;;;;4.10;3.15;;;22.80;59.40;22.90;100239.00;;;;5015192;27;89058;-65
2022/06/19 00:44:41;;;;;;;2.42;1.98;;;22.70;59.70;22.80;100248.00;;;;5007470;27;88817;-65
2022/06/19 00:47:15;;;;;;;2.88;2.58;;;22.60;59.90;22.70;100241.00;;;;4988572;28;87652;-65
2022/06/19 00:49:49;;;;;;;2.60;2.38;;;22.60;60.00;22.70;100234.00;;;;4994245;28;95531;-66
2022/06/19 00:52:31;;;;;;;7.43;2.88;;;22.50;60.20;22.60;100227.00;;;;4994641;27;88587;-65
2022/06/19 00:55:16;;;;;;;2.30;2.00;;;22.50;60.50;22.60;100232.00;;;;4995461;27;87964;-65
2022/06/19 00:57:58;;;;;;;2.65;1.90;;;22.40;60.70;22.50;100233.00;;;;5013236;27;91807;-65
2022/06/19 01:00:27;;;;;;;2.58;1.90;;;22.40;61.10;22.50;100222.00;;;;5008823;27;107460;-65
2022/06/19 01:03:04;;;;;;;9.40;3.13;;;22.30;61.20;22.40;100230.00;;;;4994773;27;87840;-65
2022/06/19 01:05:31;;;;;;;7.15;2.45;;;22.30;61.40;22.40;100218.00;;;;4991033;27;100126;-65
2022/06/19 01:08:00;;;;;;;2.88;2.35;;;22.20;61.60;22.40;100217.00;;;;4984432;28;108573;-65
2022/06/19 01:10:25;;;;;;;2.05;1.92;;;22.20;62.00;22.30;100215.00;;;;4998513;28;88187;-65
2022/06/19 01:12:52;;;;;;;2.60;2.08;;;22.20;62.20;22.30;100218.00;;;;4987452;28;101792;-65
2022/06/19 01:15:22;;;;;;;10.20;2.30;;;22.10;62.30;22.30;100206.00;;;;5005152;27;110542;-64
2022/06/19 01:17:52;;;;;;;2.53;2.33;;;22.10;62.50;22.20;100199.00;;;;5017577;27;97267;-65
2022/06/19 01:20:18;;;;;;;7.38;2.40;;;22.00;62.80;22.20;100189.00;;;;5016823;27;88204;-66
2022/06/19 01:22:54;;;;;;;3.63;2.50;;;22.00;63.00;22.10;100193.00;;;;5008762;27;87204;-64
2022/06/19 01:25:26;;;;;;;4.15;2.55;;;21.90;63.40;22.00;100190.00;;;;5015952;27;87689;-64
2022/06/19 01:30:47;;;;;;;4.07;3.05;;;21.80;64.30;21.90;100191.00;;;;5014678;27;88895;-65
2022/06/19 01:33:21;;;;;;;3.88;3.10;;;21.70;64.50;21.80;100181.00;;;;5009303;27;89232;-65
2022/06/19 01:35:49;;;;;;;3.40;1.88;;;21.60;64.90;21.70;100177.00;;;;5004670;27;100664;-65
2022/06/19 01:38:19;;;;;;;4.65;2.08;;;21.60;65.20;21.60;100169.00;;;;5004854;27;87855;-65
2022/06/19 01:40:51;;;;;;;4.28;3.15;;;21.50;65.50;21.60;100151.00;;;;5017621;27;87903;-65
2022/06/19 01:43:18;;;;;;;3.72;2.63;;;21.40;66.00;21.50;100149.00;;;;5017770;27;87763;-65
2022/06/19 01:45:48;;;;;;;5.10;2.95;;;21.30;66.10;21.40;100143.00;;;;4996201;27;92161;-65
2022/06/19 01:48:15;;;;;;;4.22;3.28;;;21.30;67.00;21.40;100139.00;;;;4996539;28;86868;-65
2022/06/19 01:50:43;;;;;;;5.93;2.45;;;21.20;67.30;21.30;100138.00;;;;4995234;28;108789;-64
2022/06/19 01:53:27;;;;;;;3.83;2.85;;;21.20;67.40;21.30;100138.00;;;;4995504;28;88263;-64
2022/06/19 01:55:53;;;;;;;2.63;2.42;;;21.10;67.40;21.30;100131.00;;;;4991650;27;88707;-65
2022/06/19 01:58:21;;;;;;;4.18;2.97;;;21.10;67.50;21.30;100134.00;;;;5017074;27;108846;-65
2022/06/19 02:00:48;;;;;;;4.70;2.65;;;21.10;67.70;21.30;100137.00;;;;5016010;27;88941;-65
2022/06/19 02:03:36;;;;;;;5.78;3.50;;;21.10;67.70;21.30;100129.00;;;;4997069;27;88423;-65
2022/06/19 02:06:04;;;;;;;2.55;2.22;;;21.10;68.00;21.30;100130.00;;;;4998741;27;87693;-64
2022/06/19 02:08:32;;;;;;;8.93;2.28;;;21.10;68.00;21.30;100123.00;;;;5012050;27;87807;-64
2022/06/19 02:10:59;;;;;;;8.10;3.15;;;21.10;68.20;21.30;100126.00;;;;4980893;27;106453;-64
2022/06/19 02:13:25;;;;;;;3.67;2.63;;;21.10;68.30;21.30;100119.00;;;;5016069;27;115910;-64
2022/06/19 02:15:53;;;;;;;2.53;2.33;;;21.10;68.40;21.30;100116.00;;;;4996194;27;111063;-64
2022/06/19 02:18:26;;;;;;;4.00;2.22;;;21.10;68.50;21.30;100118.00;;;;4996805;28;87726;-64
2022/06/19 02:20:53;;;;;;;3.85;3.42;;;21.10;68.70;21.30;100125.00;;;;4996271;28;89403;-64
2022/06/19 02:23:32;;;;;;;5.57;2.63;;;21.10;68.80;21.20;100115.00;;;;5014919;27;89130;-64
2022/06/19 02:26:00;;;;;;;2.65;2.45;;;21.10;69.10;21.20;100113.00;;;;5016766;27;102429;-64
2022/06/19 02:28:27;;;;;;;5.35;2.67;;;21.10;69.20;21.20;100097.00;;;;5015731;27;100762;-64
2022/06/19 02:30:54;;;;;;;6.63;3.05;;;21.10;69.60;21.20;100082.00;;;;5014877;27;87941;-64
2022/06/19 02:33:26;;;;;;;6.63;2.95;;;21.00;70.50;21.10;100064.00;;;;5016834;27;88644;-64
2022/06/19 02:35:52;;;;;;;5.10;3.55;;;20.90;71.40;20.90;100065.00;;;;5016509;27;102891;-65
2022/06/19 02:38:21;;;;;;;2.92;2.70;;;20.90;72.30;20.80;100065.00;;;;5002232;27;108929;-64
2022/06/19 02:41:10;;;;;;;6.25;2.90;;;20.70;72.70;20.70;100081.00;;;;4996633;28;88360;-64
2022/06/19 02:43:36;;;;;;;6.00;2.50;;;20.60;73.10;20.60;100076.00;;;;4994344;28;88298;-65
2022/06/19 02:46:06;;;;;;;4.47;3.00;;;20.50;73.10;20.60;100065.00;;;;4995742;28;110011;-64
2022/06/19 02:48:33;;;;;;;9.20;2.83;;;20.50;73.40;20.60;100060.00;;;;5001604;27;88110;-64
2022/06/19 02:51:05;;;;;;;3.40;2.60;;;20.40;73.50;20.60;100055.00;;;;4997140;27;88930;-64
2022/06/19 02:53:31;;;;;;;2.80;2.60;;;20.40;73.80;20.60;100048.00;;;;5013347;27;104366;-64
2022/06/19 02:55:58;;;;;;;3.13;2.33;;;20.40;73.90;20.60;100055.00;;;;5016094;27;110040;-63
2022/06/19 02:58:24;;;;;;;3.75;1.48;;;20.40;74.10;20.60;100050.00;;;;5002099;27;87611;-63
2022/06/19 03:00:51;;;;;;;3.60;2.83;;;20.40;74.30;20.60;100053.00;;;;4996730;27;88461;-63
2022/06/19 03:03:32;;;;;;;7.45;2.25;;;20.40;74.50;20.50;100064.00;;;;4995578;27;110207;-64
2022/06/19 03:05:58;;;;;;;4.95;2.75;;;20.40;74.90;20.50;100054.00;;;;4994358;28;88075;-64
2022/06/19 03:08:24;;;;;;;4.43;2.50;;;20.30;74.80;20.50;100052.00;;;;5008773;27;108891;-64
2022/06/19 03:10:50;;;;;;;3.55;2.88;;;20.40;75.00;20.60;100047.00;;;;5015159;27;118595;-65
2022/06/19 03:13:20;;;;;;;4.10;3.15;;;20.40;75.40;20.50;100046.00;;;;5016509;27;88627;-64
2022/06/19 03:15:46;;;;;;;2.38;2.10;;;20.40;76.10;20.50;100034.00;;;;5016501;27;87847;-63
2022/06/19 03:18:12;;;;;;;2.80;2.60;;;20.30;76.40;20.40;100035.00;;;;5004258;27;108081;-64
2022/06/19 03:20:37;;;;;;;4.95;3.72;;;20.30;76.90;20.40;100033.00;;;;4995629;27;116454;-64
2022/06/19 03:23:03;;;;;;;2.92;2.53;;;20.20;77.60;20.30;100037.00;;;;5010874;27;117030;-63
2022/06/19 03:25:29;;;;;;;3.30;3.05;;;20.20;78.00;20.30;100044.00;;;;5015055;27;110498;-63
2022/06/19 03:27:55;;;;;;;4.25;3.10;;;20.10;78.10;20.30;100037.00;;;;5015090;27;108511;-64
2022/06/19 03:30:21;;;;;;;4.07;2.83;;;20.10;78.30;20.30;100031.00;;;;5015227;27;114037;-65
2022/06/19 03:32:47;;;;;;;4.78;3.08;;;20.10;78.50;20.30;100026.00;;;;5016229;27;89050;-65
2022/06/19 03:35:15;;;;;;;3.28;2.75;;;20.10;78.60;20.30;100040.00;;;;5014799;27;101669;-64
2022/06/19 03:37:41;;;;;;;2.33;2.17;;;20.10;78.70;20.30;100029.00;;;;5010843;27;87842;-64
2022/06/19 03:40:09;;;;;;;6.43;2.50;;;20.10;78.70;20.30;100026.00;;;;4995656;27;89022;-65
2022/06/19 03:42:34;;;;;;;2.80;2.60;;;20.10;78.70;20.40;100009.00;;;;4995410;27;87783;-65
2022/06/19 03:45:00;;;;;;;2.92;2.50;;;20.20;78.80;20.50;100020.00;;;;4995193;28;110113;-65
2022/06/19 03:47:26;;;;;;;3.28;2.45;;;20.20;78.70;20.50;100011.00;;;;4997572;27;108191;-64
2022/06/19 03:49:53;;;;;;;5.35;2.97;;;20.30;78.70;20.60;100004.00;;;;4994316;27;117513;-65
2022/06/19 03:52:19;;;;;;;2.67;2.08;;;20.40;78.90;20.70;100003.00;;;;4995843;28;88013;-65
2022/06/19 03:54:45;;;;;;;12.50;2.47;;;20.40;78.70;20.80;100001.00;;;;5007383;27;87782;-65
2022/06/19 03:57:15;;;;;;;3.17;2.85;;;20.50;78.70;20.90;99995.00;;;;5012793;27;109448;-64
2022/06/19 03:59:43;;;;;;;5.25;1.98;;;20.60;78.70;21.10;99994.00;;;;4994252;27;104315;-64
2022/06/19 04:02:10;;;;;;;3.08;2.15;;;20.80;78.30;21.20;100002.00;;;;4994330;28;105344;-65
2022/06/19 04:04:39;;;;;;;2.63;1.40;;;20.90;77.80;21.40;99997.00;;;;4995250;27;87768;-64
2022/06/19 04:07:06;;;;;;;3.28;2.05;;;21.10;77.60;21.60;99989.00;;;;4995885;27;87711;-64
2022/06/19 04:09:33;;;;;;;3.28;1.48;;;21.30;77.80;21.80;99994.00;;;;5015611;27;88079;-64
2022/06/19 04:11:59;;;;;;;5.45;2.30;;;21.50;76.30;22.00;99998.00;;;;5015199;27;87878;-65
2022/06/19 04:14:24;;;;;;;2.75;2.08;;;21.60;75.70;22.20;99994.00;;;;5013863;27;110690;-64
2022/06/19 04:16:50;;;;;;;4.63;2.22;;;21.80;75.00;22.30;99989.00;;;;4994322;28;110208;-64
2022/06/19 04:19:16;;;;;;;4.63;1.67;;;22.00;74.40;22.50;99982.00;;;;5014739;27;118586;-64
2022/06/19 04:21:44;;;;;;;4.13;2.05;;;22.20;73.80;22.70;99987.00;;;;5013384;27;119513;-65
2022/06/19 04:24:14;;;;;;;2.05;1.80;;;22.30;72.90;22.90;99988.00;;;;5015413;27;88607;-64
2022/06/19 04:26:40;;;;;;;1.92;1.75;;;22.50;73.10;23.00;99994.00;;;;5004228;27;99271;-64
2022/06/19 04:29:09;;;;;;;2.40;1.98;;;22.70;71.60;23.20;99982.00;;;;4994523;28;100708;-65
2022/06/19 04:31:35;;;;;;;4.97;1.50;;;22.90;70.90;23.40;99987.00;;;;4994590;28;88590;-65
2022/06/19 04:34:02;;;;;;;3.80;2.45;;;23.00;70.30;23.50;99983.00;;;;4995317;27;87817;-65
2022/06/19 04:36:29;;;;;;;2.75;1.83;;;23.20;69.60;23.70;99983.00;;;;5004478;27;87708;-66
2022/06/19 04:38:56;;;;;;;6.55;1.55;;;23.40;68.90;23.80;99974.00;;;;5018043;27;88078;-66
2022/06/19 04:41:40;;;;;;;4.07;1.55;;;23.50;68.30;24.00;99968.00;;;;5019371;27;88113;-65
2022/06/19 04:44:17;;;;;;;2.08;1.92;;;23.70;67.90;24.10;99970.00;;;;5019783;27;88118;-65
2022/06/19 04:46:44;;;;;;;2.28;1.73;;;23.80;67.30;24.30;99974.00;;;;5003482;27;87883;-67
2022/06/19 04:49:11;;;;;;;1.80;1.70;;;23.90;66.80;24.40;99967.00;;;;4995384;28;89327;-66
2022/06/19 04:51:37;;;;;;;2.40;1.92;;;24.10;66.50;24.50;99977.00;;;;5000023;27;106226;-65
2022/06/19 04:54:03;;;;;;;3.58;2.08;;;24.30;66.10;24.60;99980.00;;;;5000742;27;95904;-67
2022/06/19 04:56:29;;;;;;;2.03;1.63;;;24.30;65.70;24.80;99976.00;;;;4993968;27;109689;-66
2022/06/19 04:58:54;;;;;;;2.78;1.80;;;24.40;65.30;24.90;99983.00;;;;4994601;27;88161;-66
2022/06/19 05:01:33;;;;;;;1.88;1.77;;;24.60;65.00;25.00;99978.00;;;;4994006;27;111651;-66
2022/06/19 05:04:03;;;;;;;8.95;2.05;;;24.70;64.30;25.10;99983.00;;;;4994711;27;87615;-65
2022/06/19 05:06:30;;;;;;;6.55;2.00;;;24.80;64.00;25.20;99981.00;;;;5010896;27;87322;-66
2022/06/19 05:08:55;;;;;;;1.25;1.20;;;24.90;63.80;25.40;99984.00;;;;5014672;27;88369;-66
2022/06/19 05:11:23;;;;;;;5.18;1.70;;;25.00;63.20;25.50;99981.00;;;;5013974;27;88028;-66
2022/06/19 05:13:49;;;;;;;4.03;1.48;;;25.10;62.90;25.60;99965.00;;;;5012456;27;88907;-66
2022/06/19 05:16:19;;;;;;;2.75;1.73;;;25.20;62.50;25.70;99959.00;;;;5008311;27;90242;-65
2022/06/19 05:18:46;;;;;;;4.68;1.88;;;25.30;62.40;25.80;99961.00;;;;4993983;27;88061;-66
2022/06/19 05:21:13;;;;;;;2.65;1.27;;;25.40;62.10;25.90;99962.00;;;;4994542;27;106060;-66
2022/06/19 05:23:45;;;;;;;2.97;1.17;;;25.60;61.90;26.00;99966.00;;;;5013981;27;88301;-66
2022/06/19 05:26:30;;;;;;;3.63;1.80;;;25.70;61.40;26.20;99958.00;;;;5008480;27;87811;-66
2022/06/19 05:28:57;;;;;;;2.33;1.33;;;25.80;60.60;26.30;99967.00;;;;4994298;27;88052;-66
2022/06/19 05:31:25;;;;;;;1.85;1.67;;;25.90;60.40;26.50;99950.00;;;;4993902;27;87913;-67
2022/06/19 05:33:51;;;;;;;2.67;1.55;;;26.10;59.70;26.60;99951.00;;;;4994263;27;88028;-66
2022/06/19 05:36:18;;;;;;;8.40;1.73;;;26.20;59.40;26.70;99956.00;;;;4999068;27;87850;-67
2022/06/19 05:38:44;;;;;;;2.95;1.45;;;26.40;58.90;26.90;99950.00;;;;5013456;27;89297;-67
2022/06/19 05:41:10;;;;;;;2.17;1.48;;;26.50;58.30;27.00;99949.00;;;;5013889;27;89109;-65
2022/06/19 05:43:36;;;;;;;2.85;2.00;;;26.70;58.40;27.10;99957.00;;;;5013799;27;110250;-66
2022/06/19 05:46:15;;;;;;;6.03;1.85;;;26.80;57.60;27.20;99957.00;;;;5013840;27;87954;-66
2022/06/19 05:48:41;;;;;;;2.33;1.77;;;26.90;56.90;27.30;99950.00;;;;4993661;27;89574;-66
2022/06/19 05:51:27;;;;;;;6.22;2.28;;;27.00;56.80;27.50;99939.00;;;;4993425;27;89116;-67
2022/06/19 05:53:57;;;;;;;3.15;1.77;;;27.20;56.80;27.60;99943.00;;;;5003670;27;110299;-66
2022/06/19 05:56:24;;;;;;;4.70;1.52;;;27.30;56.10;27.70;99939.00;;;;5008021;27;100906;-67
2022/06/19 05:58:50;;;;;;;1.83;1.63;;;27.40;56.00;27.80;99943.00;;;;5011178;27;107898;-68
2022/06/19 06:01:18;;;;;;;1.25;1.15;;;27.50;56.00;27.90;99934.00;;;;4994938;27;88538;-66
2022/06/19 06:03:47;;;;;;;2.50;1.55;;;27.60;55.70;28.00;99920.00;;;;5003790;27;88559;-66
2022/06/19 06:06:25;;;;;;;4.72;1.83;;;27.60;54.80;28.10;99926.00;;;;5012059;27;108904;-67
2022/06/19 06:08:51;;;;;;;1.40;1.27;;;27.70;55.00;28.20;99929.00;;;;5014229;27;87853;-67
2022/06/19 06:11:18;;;;;;;2.85;1.65;;;27.80;54.40;28.20;99927.00;;;;5012794;27;111632;-67
2022/06/19 06:13:50;;;;;;;2.55;1.27;;;27.90;54.30;28.40;99932.00;;;;5011133;27;87890;-67
2022/06/19 06:16:19;;;;;;;1.75;1.42;;;28.00;54.30;28.50;99933.00;;;;5006698;27;96690;-70
2022/06/19 06:18:51;;;;;;;2.53;1.98;;;28.10;53.70;28.60;99934.00;;;;5010032;27;87734;-69
2022/06/19 06:21:21;;;;;;;4.32;1.77;;;28.20;53.50;28.70;99937.00;;;;5012138;27;87773;-69
2022/06/19 06:23:47;;;;;;;2.03;1.58;;;28.30;53.40;28.80;99940.00;;;;4998595;27;88082;-70
2022/06/19 06:26:17;;;;;;;2.40;1.70;;;28.50;53.50;29.00;99939.00;;;;5009864;27;108193;-69
2022/06/19 06:28:47;;;;;;;6.70;2.08;;;28.60;53.30;29.10;99932.00;;;;5009895;27;89270;-69
2022/06/19 06:31:13;;;;;;;2.40;1.63;;;28.80;52.50;29.20;99938.00;;;;5013812;27;89115;-69
2022/06/19 06:33:39;;;;;;;4.78;2.33;;;28.90;52.00;29.30;99937.00;;;;5012399;27;87368;-69
2022/06/19 06:36:06;;;;;;;8.48;1.88;;;29.00;51.50;29.40;99936.00;;;;5011819;27;109690;-69
2022/06/19 06:38:32;;;;;;;4.80;1.63;;;29.10;51.40;29.50;99933.00;;;;5013701;27;88057;-69
2022/06/19 06:40:59;;;;;;;3.72;2.28;;;29.10;51.20;29.60;99928.00;;;;5012073;27;108905;-71
2022/06/19 06:43:25;;;;;;;3.88;1.58;;;29.10;50.90;29.70;99924.00;;;;5012659;27;87596;-71
2022/06/19 06:45:51;;;;;;;4.68;1.67;;;29.30;51.00;29.80;99916.00;;;;5012668;27;87355;-69
2022/06/19 06:48:19;;;;;;;2.80;1.65;;;29.40;50.70;29.90;99924.00;;;;4992565;27;106194;-69
2022/06/19 06:50:45;;;;;;;2.45;1.65;;;29.50;50.00;30.00;99923.00;;;;4992785;27;88397;-70
2022/06/19 06:53:12;;;;;;;2.58;1.60;;;29.60;50.00;30.10;99925.00;;;;4995638;27;96857;-69
2022/06/19 06:55:43;;;;;;;2.13;1.77;;;29.70;50.10;30.20;99923.00;;;;4991968;27;103089;-71
2022/06/19 06:58:10;;;;;;;2.08;1.70;;;29.80;49.60;30.20;99918.00;;;;5008557;27;88675;-69
2022/06/19 07:00:36;;;;;;;6.78;1.92;;;29.80;49.30;30.30;99917.00;;;;5011180;27;118021;-71
2022/06/19 07:03:09;;;;;;;1.35;0.85;;;29.90;49.40;30.50;99903.00;;;;5013299;27;87959;-69
2022/06/19 07:05:35;;;;;;;2.30;1.55;;;30.10;49.50;30.70;99910.00;;;;5012575;27;108753;-70
2022/06/19 07:08:00;;;;;;;2.67;1.63;;;30.30;48.70;30.90;99902.00;;;;5010534;27;118873;-69
2022/06/19 07:10:27;;;;;;;5.20;1.48;;;30.40;48.60;31.00;99901.00;;;;4995534;27;88208;-69
2022/06/19 07:12:52;;;;;;;2.33;1.15;;;30.60;48.00;31.20;99900.00;;;;4992789;27;89260;-72
2022/06/19 07:15:18;;;;;;;1.67;1.25;;;30.70;47.70;31.30;99890.00;;;;5010317;27;88989;-70
2022/06/19 07:17:44;;;;;;;1.55;1.35;;;30.90;47.00;31.50;99895.00;;;;5009952;27;117717;-69
2022/06/19 07:20:10;;;;;;;1.77;1.63;;;31.00;47.00;31.70;99889.00;;;;5011589;27;119446;-69
2022/06/19 07:22:36;;;;;;;1.55;1.45;;;31.20;46.60;31.90;99888.00;;;;5005098;27;100612;-70
2022/06/19 07:25:04;;;;;;;1.73;1.63;;;31.40;45.50;32.00;99885.00;;;;4992121;27;90408;-68
2022/06/19 07:27:30;;;;;;;2.88;1.25;;;31.50;44.90;32.20;99872.00;;;;4992350;27;88022;-69
2022/06/19 07:29:56;;;;;;;5.80;1.67;;;31.70;43.90;32.30;99878.00;;;;5005722;27;114146;-69
2022/06/19 07:32:22;;;;;;;3.90;1.52;;;31.80;43.70;32.40;99872.00;;;;5002560;27;109458;-69
2022/06/19 07:34:47;;;;;;;2.67;1.05;;;32.00;43.70;32.60;99877.00;;;;4991848;27;108446;-69
2022/06/19 07:37:15;;;;;;;4.22;2.40;;;32.20;42.80;32.80;99869.00;;;;5003893;27;118928;-71
2022/06/19 07:39:41;;;;;;;6.57;1.42;;;32.30;42.30;33.00;99867.00;;;;5010314;27;87930;-69
2022/06/19 07:42:11;;;;;;;4.47;1.70;;;32.50;41.60;33.00;99867.00;;;;4996248;27;88913;-70
2022/06/19 07:44:51;;;;;;;2.35;1.60;;;32.60;40.90;33.00;99871.00;;;;4992115;27;87688;-69
2022/06/19 07:50:13;;;;;;;2.03;1.48;;;32.60;40.80;33.00;99855.00;;;;5004859;27;87868;-71
2022/06/19 07:52:42;;;;;;;3.35;1.58;;;32.50;41.20;33.10;99852.00;;;;5005182;27;87649;-70
2022/06/19 07:55:11;;;;;;;1.38;1.27;;;32.70;40.90;33.20;99856.00;;;;4991033;27;88299;-69
2022/06/19 07:57:38;;;;;;;9.38;1.55;;;32.80;41.10;33.30;99862.00;;;;4991298;27;105280;-70
2022/06/19 08:00:16;;;;;;;2.78;1.80;;;32.80;40.60;33.20;99864.00;;;;4998230;27;109159;-70
2022/06/19 08:03:01;;;;;;;1.77;1.65;;;32.80;40.70;33.30;99858.00;;;;5024656;27;88178;-70
2022/06/19 08:05:31;;;;;;;2.03;1.80;;;32.90;40.60;33.50;99847.00;;;;4989063;27;108229;-69
2022/06/19 08:08:03;;;;;;;1.65;1.15;;;33.10;40.20;33.50;99853.00;;;;4991210;27;97256;-70
2022/06/19 08:10:38;;;;;;;2.40;1.75;;;33.10;40.20;33.50;99849.00;;;;5006215;27;88785;-70
2022/06/19 08:13:06;;;;;;;3.20;1.38;;;33.10;40.00;33.60;99844.00;;;;5005996;27;88312;-70
2022/06/19 08:15:33;;;;;;;2.33;0.93;;;33.20;40.00;33.70;99838.00;;;;5006175;27;87803;-69
2022/06/19 08:18:00;;;;;;;1.45;1.13;;;33.30;39.30;33.70;99837.00;;;;4991457;27;88164;-69
2022/06/19 08:20:26;;;;;;;3.50;1.25;;;33.30;39.30;33.80;99840.00;;;;5009565;27;88288;-70
2022/06/19 08:22:52;;;;;;;2.15;1.20;;;33.40;39.10;33.90;99832.00;;;;4996509;27;98559;-69
2022/06/19 08:25:23;;;;;;;3.17;1.70;;;33.40;38.90;34.00;99827.00;;;;5008722;27;109601;-69
2022/06/19 08:27:56;;;;;;;5.60;1.63;;;33.50;39.00;34.10;99830.00;;;;5008516;27;88590;-69
2022/06/19 08:30:27;;;;;;;2.83;1.75;;;33.70;38.90;34.30;99828.00;;;;4995039;27;110087;-69
2022/06/19 08:32:53;;;;;;;1.17;0.93;;;33.90;38.40;34.50;99836.00;;;;4991035;27;91337;-69
2022/06/19 08:35:20;;;;;;;1.58;1.33;;;34.00;38.50;34.60;99828.00;;;;4989295;27;88106;-70
2022/06/19 08:37:50;;;;;;;2.33;1.88;;;34.20;38.40;34.80;99821.00;;;;4992286;27;97626;-71
2022/06/19 08:40:41;;;;;;;2.92;0.98;;;34.30;37.60;35.00;99810.00;;;;5005620;27;97498;-70
2022/06/19 08:43:47;;;;;;;1.40;1.00;;;34.50;37.80;35.40;99796.00;;;;5011392;27;87981;-70
2022/06/19 08:46:45;;;;;;;1.35;1.13;;;34.80;36.10;35.50;99796.00;;;;5000525;27;88783;-69
2022/06/19 08:49:35;;;;;;;1.15;1.02;;;35.00;34.80;35.70;99791.00;;;;5011490;27;88170;-69
2022/06/19 08:52:24;;;;;;;3.95;1.27;;;35.20;33.60;35.70;99789.00;;;;4988849;27;89573;-71
2022/06/19 08:55:08;;;;;;;1.38;1.27;;;35.30;33.10;35.80;99790.00;;;;5010955;27;87972;-70
2022/06/19 08:58:07;;;;;;;1.52;1.08;;;35.30;32.90;35.90;99794.00;;;;4991410;27;95475;-70
2022/06/19 09:01:10;;;;;;;2.35;1.00;;;35.40;32.90;35.90;99783.00;;;;5006986;27;88910;-68
2022/06/19 09:07:09;;;;;;;2.70;1.35;;;35.60;32.50;36.10;99785.00;;;;5006969;27;88323;-71
2022/06/19 09:10:06;;;;;;;1.08;0.90;;;35.70;32.20;36.20;99796.00;;;;4993895;27;94960;-70
2022/06/19 09:12:55;;;;;;;8.95;2.17;;;35.70;32.00;36.30;99795.00;;;;4986104;27;89285;-69
2022/06/19 09:15:45;;;;;;;1.00;0.73;;;35.80;32.00;36.30;99793.00;;;;4991509;27;88165;-69
2022/06/19 09:18:48;;;;;;;4.03;1.70;;;35.80;31.40;36.30;99794.00;;;;5003496;27;100026;-71
2022/06/19 09:21:55;;;;;;;4.30;1.52;;;35.80;31.40;36.20;99788.00;;;;4992275;27;87099;-70
2022/06/19 09:28:08;;;;;;;1.45;1.20;;;35.80;31.60;36.20;99787.00;;;;5003928;27;88055;-69
2022/06/19 09:31:18;;;;;;;4.07;1.75;;;35.80;31.30;36.20;99791.00;;;;5006940;27;99874;-69
2022/06/19 09:33:58;;;;;;;3.00;1.30;;;35.80;31.50;36.20;99776.00;;;;4991909;27;99567;-69
2022/06/19 09:36:55;;;;;;;5.82;1.65;;;35.80;31.80;36.40;99783.00;;;;4992020;27;87695;-68
2022/06/19 09:39:48;;;;;;;3.45;1.23;;;35.80;31.90;36.60;99785.00;;;;5008506;27;106864;-68
2022/06/19 09:42:27;;;;;;;4.50;1.92;;;36.00;31.40;36.60;99763.00;;;;5001056;27;87876;-70
2022/06/19 09:45:20;;;;;;;2.50;1.15;;;36.10;31.50;36.70;99774.00;;;;5001672;27;88166;-68
2022/06/19 09:48:01;;;;;;;2.60;1.40;;;36.20;30.90;36.70;99767.00;;;;4984008;27;88025;-70
2022/06/19 09:50:54;;;;;;;2.17;1.02;;;36.30;31.00;36.80;99767.00;;;;5009907;27;98623;-69
2022/06/19 09:53:47;;;;;;;3.90;1.35;;;36.30;30.50;36.90;99771.00;;;;5007605;27;94917;-69
2022/06/19 09:56:55;;;;;;;3.53;1.23;;;36.40;30.60;37.00;99770.00;;;;4996785;27;88061;-68
2022/06/19 09:59:40;;;;;;;3.53;1.67;;;36.50;30.70;37.10;99754.00;;;;4990358;27;111903;-69
2022/06/19 10:02:42;;;;;;;2.88;1.60;;;36.60;30.40;37.20;99770.00;;;;4996959;27;109749;-69
2022/06/19 10:05:51;;;;;;;1.83;1.42;;;36.70;30.00;37.30;99766.00;;;;4995066;27;87827;-69
2022/06/19 10:08:31;;;;;;;2.63;1.27;;;36.80;30.20;37.50;99760.00;;;;4975155;27;87822;-69
2022/06/19 10:11:23;;;;;;;6.03;1.83;;;36.90;29.90;37.60;99764.00;;;;5009655;27;108034;-70
2022/06/19 10:14:28;;;;;;;3.72;1.73;;;37.10;29.50;37.60;99757.00;;;;4986393;28;87860;-69
2022/06/19 10:17:04;;;;;;;5.28;1.67;;;37.10;29.40;37.60;99729.00;;;;5009639;27;88702;-68
2022/06/19 10:20:06;;;;;;;3.42;1.58;;;37.10;29.30;37.60;99762.00;;;;5009436;27;87325;-70
2022/06/19 10:23:08;;;;;;;2.63;1.10;;;37.00;29.10;37.50;99734.00;;;;5005685;27;88205;-69
2022/06/19 10:26:07;;;;;;;1.35;1.23;;;37.10;29.40;37.50;99741.00;;;;5004208;27;87921;-69
2022/06/19 10:29:01;;;;;;;9.75;1.95;;;37.00;29.70;37.60;99741.00;;;;4993157;27;88795;-69
2022/06/19 10:31:50;;;;;;;8.50;2.25;;;37.00;29.90;37.60;99735.00;;;;5003373;27;87894;-69
2022/06/19 10:34:48;;;;;;;2.97;1.58;;;37.10;29.30;37.70;99709.00;;;;4969507;28;89527;-68
2022/06/19 10:38:01;;;;;;;12.05;1.85;;;37.20;29.10;37.80;99738.00;;;;4970586;27;87902;-70
2022/06/19 10:40:43;;;;;;;7.28;2.17;;;37.30;29.40;37.90;99718.00;;;;5004108;27;88102;-69
2022/06/19 10:43:24;;;;;;;12.75;1.30;;;37.30;29.40;38.00;99728.00;;;;5011013;27;88091;-68
2022/06/19 10:45:56;;;;;;;14.55;2.45;;;37.50;28.50;38.00;99726.00;;;;4997812;27;101932;-68
2022/06/19 10:49:14;;;;;;;6.97;1.88;;;37.50;28.80;38.20;99713.00;;;;4992693;27;88846;-69
2022/06/19 10:52:25;;;;;;;3.80;1.65;;;37.60;29.10;38.30;99728.00;;;;4979074;28;93684;-67
2022/06/19 10:55:21;;;;;;;6.97;1.60;;;37.70;29.30;38.50;99705.00;;;;4988834;27;88148;-71
2022/06/19 10:58:11;;;;;;;5.20;1.40;;;37.90;29.50;38.80;99715.00;;;;4990077;27;102129;-68
2022/06/19 11:00:37;;;;;;;4.25;1.60;;;38.10;29.20;38.90;99696.00;;;;4984472;28;91198;-68
2022/06/19 11:06:11;;;;;;;2.83;1.33;;;38.30;28.50;38.90;99689.00;;;;4996128;27;87695;-68
2022/06/19 11:08:40;;;;;;;6.68;1.85;;;38.40;27.80;38.90;99684.00;;;;4993525;27;88198;-68
2022/06/19 11:11:07;;;;;;;5.40;2.03;;;38.40;27.90;38.90;99670.00;;;;4989701;27;87975;-68
2022/06/19 11:14:07;;;;;;;5.28;2.03;;;38.30;27.80;38.80;99680.00;;;;4996146;27;87647;-69
2022/06/19 11:16:56;;;;;;;2.88;1.50;;;38.30;28.00;39.00;99669.00;;;;4984981;27;87179;-69
2022/06/19 11:19:38;;;;;;;5.30;1.90;;;38.40;27.80;39.10;99668.00;;;;5007574;27;87983;-69
2022/06/19 11:22:19;;;;;;;1.92;1.55;;;38.50;27.70;39.10;99683.00;;;;5010947;27;88172;-68
2022/06/19 11:24:45;;;;;;;5.88;1.55;;;38.50;27.40;39.10;99672.00;;;;4996765;27;89101;-70
2022/06/19 11:27:19;;;;;;;6.75;1.20;;;38.60;27.50;39.20;99665.00;;;;4995091;27;87711;-70
2022/06/19 11:29:49;;;;;;;6.85;1.50;;;38.60;27.50;39.20;99675.00;;;;5009141;27;108980;-69
2022/06/19 11:32:19;;;;;;;2.22;1.48;;;38.60;27.30;39.30;99656.00;;;;5004071;27;88178;-69